sensor_id;sensor_type;location;lat;lon;timestamp;P1;durP1;ratioP1;P2;durP2;ratioP2
3217;SDS011;1621;49.702;8.618;2023-03-05T00:02:12;34.80;;;19.90;;
3217;SDS011;1621;49.702;8.618;2023-03-05T00:04:40;33.00;;;18.67;;
3217;SDS011;1621;49.702;8.618;2023-03-05T00:07:06;41.23;;;20.47;;
3217;SDS011;1621;49.702;8.618;2023-03-05T00:09:36;32.53;;;20.47;;
3217;SDS011;1621;49.702;8.618;2023-03-05T00:12:02;35.47;;;21.40;;
3217;SDS011;1621;49.702;8.618;2023-03-05T00:14:29;30.90;;;18.87;;
3217;SDS011;1621;49.702;8.618;2023-03-05T00:16:55;31.37;;;19.30;;
3217;SDS011;1621;49.702;8.618;2023-03-05T00:19:21;33.83;;;19.90;;
3217;SDS011;1621;49.702;8.618;2023-03-05T00:21:49;35.87;;;19.43;;
3217;SDS011;1621;49.702;8.618;2023-03-05T00:24:15;33.13;;;18.37;;
3217;SDS011;1621;49.702;8.618;2023-03-05T00:26:42;31.83;;;18.63;;
3217;SDS011;1621;49.702;8.618;2023-03-05T00:29:09;33.30;;;18.33;;
3217;SDS011;1621;49.702;8.618;2023-03-05T00:31:36;35.40;;;20.13;;
3217;SDS011;1621;49.702;8.618;2023-03-05T00:34:03;41.70;;;19.60;;
3217;SDS011;1621;49.702;8.618;2023-03-05T00:36:30;34.87;;;19.37;;
3217;SDS011;1621;49.702;8.618;2023-03-05T00:38:58;29.40;;;18.50;;
3217;SDS011;1621;49.702;8.618;2023-03-05T00:41:24;33.83;;;20.37;;
3217;SDS011;1621;49.702;8.618;2023-03-05T00:43:51;33.93;;;18.20;;
3217;SDS011;1621;49.702;8.618;2023-03-05T00:46:17;31.87;;;18.47;;
3217;SDS011;1621;49.702;8.618;2023-03-05T00:48:43;30.33;;;18.00;;
3217;SDS011;1621;49.702;8.618;2023-03-05T00:51:10;32.40;;;19.87;;
3217;SDS011;1621;49.702;8.618;2023-03-05T00:53:36;35.40;;;18.37;;
3217;SDS011;1621;49.702;8.618;2023-03-05T00:56:04;34.43;;;20.60;;
3217;SDS011;1621;49.702;8.618;2023-03-05T00:58:31;34.13;;;19.37;;
3217;SDS011;1621;49.702;8.618;2023-03-05T01:00:57;34.87;;;18.70;;
3217;SDS011;1621;49.702;8.618;2023-03-05T01:03:24;33.97;;;20.53;;
3217;SDS011;1621;49.702;8.618;2023-03-05T01:05:50;31.70;;;18.80;;
3217;SDS011;1621;49.702;8.618;2023-03-05T01:08:16;33.27;;;20.40;;
3217;SDS011;1621;49.702;8.618;2023-03-05T01:10:43;30.80;;;18.13;;
3217;SDS011;1621;49.702;8.618;2023-03-05T01:13:11;31.27;;;19.23;;
3217;SDS011;1621;49.702;8.618;2023-03-05T01:15:37;31.37;;;18.50;;
3217;SDS011;1621;49.702;8.618;2023-03-05T01:18:04;29.43;;;18.23;;
3217;SDS011;1621;49.702;8.618;2023-03-05T01:20:30;35.57;;;19.17;;
3217;SDS011;1621;49.702;8.618;2023-03-05T01:22:56;30.77;;;18.00;;
3217;SDS011;1621;49.702;8.618;2023-03-05T01:25:23;34.93;;;19.87;;
3217;SDS011;1621;49.702;8.618;2023-03-05T01:27:49;35.87;;;17.40;;
3217;SDS011;1621;49.702;8.618;2023-03-05T01:30:18;33.00;;;19.93;;
3217;SDS011;1621;49.702;8.618;2023-03-05T01:32:44;32.43;;;18.73;;
3217;SDS011;1621;49.702;8.618;2023-03-05T01:35:14;29.60;;;18.03;;
3217;SDS011;1621;49.702;8.618;2023-03-05T01:37:40;28.83;;;17.63;;
3217;SDS011;1621;49.702;8.618;2023-03-05T01:40:07;37.27;;;18.80;;
3217;SDS011;1621;49.702;8.618;2023-03-05T01:42:34;39.80;;;19.30;;
3217;SDS011;1621;49.702;8.618;2023-03-05T01:45:02;34.40;;;18.10;;
3217;SDS011;1621;49.702;8.618;2023-03-05T01:47:30;32.33;;;20.03;;
3217;SDS011;1621;49.702;8.618;2023-03-05T01:49:56;31.13;;;17.20;;
3217;SDS011;1621;49.702;8.618;2023-03-05T01:52:23;31.50;;;19.13;;
3217;SDS011;1621;49.702;8.618;2023-03-05T01:54:50;31.13;;;18.63;;
3217;SDS011;1621;49.702;8.618;2023-03-05T01:57:19;29.07;;;16.80;;
3217;SDS011;1621;49.702;8.618;2023-03-05T01:59:47;33.73;;;18.13;;
3217;SDS011;1621;49.702;8.618;2023-03-05T02:02:14;29.37;;;18.10;;
3217;SDS011;1621;49.702;8.618;2023-03-05T02:04:45;34.47;;;16.70;;
3217;SDS011;1621;49.702;8.618;2023-03-05T02:07:11;30.03;;;18.60;;
3217;SDS011;1621;49.702;8.618;2023-03-05T02:09:39;30.37;;;18.90;;
3217;SDS011;1621;49.702;8.618;2023-03-05T02:12:05;34.47;;;17.50;;
3217;SDS011;1621;49.702;8.618;2023-03-05T02:14:32;29.57;;;17.37;;
3217;SDS011;1621;49.702;8.618;2023-03-05T02:16:59;27.77;;;17.60;;
3217;SDS011;1621;49.702;8.618;2023-03-05T02:19:25;28.00;;;18.37;;
3217;SDS011;1621;49.702;8.618;2023-03-05T02:21:53;32.63;;;17.43;;
3217;SDS011;1621;49.702;8.618;2023-03-05T02:24:30;32.10;;;17.70;;
3217;SDS011;1621;49.702;8.618;2023-03-05T02:26:58;31.33;;;16.90;;
3217;SDS011;1621;49.702;8.618;2023-03-05T02:29:24;34.60;;;18.97;;
3217;SDS011;1621;49.702;8.618;2023-03-05T02:31:52;32.43;;;16.80;;
3217;SDS011;1621;49.702;8.618;2023-03-05T02:34:20;33.47;;;18.17;;
3217;SDS011;1621;49.702;8.618;2023-03-05T02:36:46;28.37;;;17.27;;
3217;SDS011;1621;49.702;8.618;2023-03-05T02:39:15;30.23;;;17.67;;
3217;SDS011;1621;49.702;8.618;2023-03-05T02:41:41;30.70;;;18.00;;
3217;SDS011;1621;49.702;8.618;2023-03-05T02:44:08;30.53;;;17.97;;
3217;SDS011;1621;49.702;8.618;2023-03-05T02:46:34;30.00;;;18.00;;
3217;SDS011;1621;49.702;8.618;2023-03-05T02:49:00;33.43;;;19.97;;
3217;SDS011;1621;49.702;8.618;2023-03-05T02:51:27;31.63;;;16.57;;
3217;SDS011;1621;49.702;8.618;2023-03-05T02:53:53;27.03;;;16.50;;
3217;SDS011;1621;49.702;8.618;2023-03-05T02:56:21;30.40;;;17.17;;
3217;SDS011;1621;49.702;8.618;2023-03-05T02:58:47;30.43;;;18.90;;
3217;SDS011;1621;49.702;8.618;2023-03-05T03:01:13;29.10;;;17.73;;
3217;SDS011;1621;49.702;8.618;2023-03-05T03:03:39;33.43;;;17.03;;
3217;SDS011;1621;49.702;8.618;2023-03-05T03:06:06;30.70;;;18.57;;
3217;SDS011;1621;49.702;8.618;2023-03-05T03:08:32;33.40;;;19.80;;
3217;SDS011;1621;49.702;8.618;2023-03-05T03:11:03;31.20;;;18.67;;
3217;SDS011;1621;49.702;8.618;2023-03-05T03:13:30;31.83;;;17.50;;
3217;SDS011;1621;49.702;8.618;2023-03-05T03:16:00;32.37;;;16.77;;
3217;SDS011;1621;49.702;8.618;2023-03-05T03:18:26;31.63;;;18.10;;
3217;SDS011;1621;49.702;8.618;2023-03-05T03:20:53;31.10;;;17.57;;
3217;SDS011;1621;49.702;8.618;2023-03-05T03:23:19;27.43;;;15.47;;
3217;SDS011;1621;49.702;8.618;2023-03-05T03:25:45;32.33;;;18.67;;
3217;SDS011;1621;49.702;8.618;2023-03-05T03:28:12;31.77;;;17.93;;
3217;SDS011;1621;49.702;8.618;2023-03-05T03:30:39;33.10;;;18.33;;
3217;SDS011;1621;49.702;8.618;2023-03-05T03:33:06;28.07;;;16.43;;
3217;SDS011;1621;49.702;8.618;2023-03-05T03:35:32;29.73;;;18.10;;
3217;SDS011;1621;49.702;8.618;2023-03-05T03:37:58;29.33;;;17.57;;
3217;SDS011;1621;49.702;8.618;2023-03-05T03:40:24;29.10;;;17.17;;
3217;SDS011;1621;49.702;8.618;2023-03-05T03:42:51;29.67;;;18.17;;
3217;SDS011;1621;49.702;8.618;2023-03-05T03:45:17;25.43;;;15.67;;
3217;SDS011;1621;49.702;8.618;2023-03-05T03:47:45;25.87;;;16.03;;
3217;SDS011;1621;49.702;8.618;2023-03-05T03:50:12;27.90;;;16.43;;
3217;SDS011;1621;49.702;8.618;2023-03-05T03:52:38;31.60;;;17.30;;
3217;SDS011;1621;49.702;8.618;2023-03-05T03:55:05;27.17;;;17.80;;
3217;SDS011;1621;49.702;8.618;2023-03-05T03:57:31;28.77;;;16.30;;
3217;SDS011;1621;49.702;8.618;2023-03-05T03:59:58;30.63;;;18.77;;
3217;SDS011;1621;49.702;8.618;2023-03-05T04:02:24;27.43;;;16.53;;
3217;SDS011;1621;49.702;8.618;2023-03-05T04:04:52;28.30;;;17.20;;
3217;SDS011;1621;49.702;8.618;2023-03-05T04:07:18;24.77;;;16.50;;
3217;SDS011;1621;49.702;8.618;2023-03-05T04:09:45;28.17;;;15.63;;
3217;SDS011;1621;49.702;8.618;2023-03-05T04:12:11;26.50;;;16.30;;
3217;SDS011;1621;49.702;8.618;2023-03-05T04:14:41;30.73;;;16.23;;
3217;SDS011;1621;49.702;8.618;2023-03-05T04:17:08;26.50;;;15.77;;
3217;SDS011;1621;49.702;8.618;2023-03-05T04:19:34;28.20;;;17.17;;
3217;SDS011;1621;49.702;8.618;2023-03-05T04:22:02;28.87;;;18.27;;
3217;SDS011;1621;49.702;8.618;2023-03-05T04:24:28;31.57;;;15.87;;
3217;SDS011;1621;49.702;8.618;2023-03-05T04:26:54;25.37;;;16.10;;
3217;SDS011;1621;49.702;8.618;2023-03-05T04:29:21;26.10;;;17.07;;
3217;SDS011;1621;49.702;8.618;2023-03-05T04:31:47;29.13;;;17.77;;
3217;SDS011;1621;49.702;8.618;2023-03-05T04:34:13;29.60;;;18.17;;
3217;SDS011;1621;49.702;8.618;2023-03-05T04:36:39;25.10;;;17.80;;
3217;SDS011;1621;49.702;8.618;2023-03-05T04:39:07;30.77;;;18.60;;
3217;SDS011;1621;49.702;8.618;2023-03-05T04:41:33;30.17;;;16.83;;
3217;SDS011;1621;49.702;8.618;2023-03-05T04:43:59;31.07;;;19.57;;
3217;SDS011;1621;49.702;8.618;2023-03-05T04:46:26;29.53;;;17.10;;
3217;SDS011;1621;49.702;8.618;2023-03-05T04:48:53;29.17;;;17.47;;
3217;SDS011;1621;49.702;8.618;2023-03-05T04:51:20;31.80;;;17.90;;
3217;SDS011;1621;49.702;8.618;2023-03-05T04:53:46;28.33;;;18.60;;
3217;SDS011;1621;49.702;8.618;2023-03-05T04:56:14;36.17;;;19.73;;
3217;SDS011;1621;49.702;8.618;2023-03-05T04:58:40;32.00;;;17.63;;
3217;SDS011;1621;49.702;8.618;2023-03-05T05:01:06;34.43;;;17.00;;
3217;SDS011;1621;49.702;8.618;2023-03-05T05:03:33;31.70;;;18.30;;
3217;SDS011;1621;49.702;8.618;2023-03-05T05:05:59;33.10;;;20.03;;
3217;SDS011;1621;49.702;8.618;2023-03-05T05:08:26;32.60;;;18.70;;
3217;SDS011;1621;49.702;8.618;2023-03-05T05:10:56;30.10;;;18.23;;
3217;SDS011;1621;49.702;8.618;2023-03-05T05:13:24;35.07;;;18.47;;
3217;SDS011;1621;49.702;8.618;2023-03-05T05:15:50;29.17;;;19.30;;
3217;SDS011;1621;49.702;8.618;2023-03-05T05:18:16;29.80;;;18.20;;
3217;SDS011;1621;49.702;8.618;2023-03-05T05:20:42;32.40;;;16.47;;
3217;SDS011;1621;49.702;8.618;2023-03-05T05:23:09;32.47;;;18.23;;
3217;SDS011;1621;49.702;8.618;2023-03-05T05:25:35;30.13;;;18.90;;
3217;SDS011;1621;49.702;8.618;2023-03-05T05:28:01;33.37;;;19.20;;
3217;SDS011;1621;49.702;8.618;2023-03-05T05:30:29;35.87;;;18.83;;
3217;SDS011;1621;49.702;8.618;2023-03-05T05:32:55;33.03;;;18.30;;
3217;SDS011;1621;49.702;8.618;2023-03-05T05:35:22;28.70;;;18.70;;
3217;SDS011;1621;49.702;8.618;2023-03-05T05:37:48;31.73;;;17.07;;
3217;SDS011;1621;49.702;8.618;2023-03-05T05:40:14;30.70;;;17.53;;
3217;SDS011;1621;49.702;8.618;2023-03-05T05:42:40;29.73;;;17.90;;
3217;SDS011;1621;49.702;8.618;2023-03-05T05:45:07;32.73;;;17.67;;
3217;SDS011;1621;49.702;8.618;2023-03-05T05:47:35;30.30;;;19.70;;
3217;SDS011;1621;49.702;8.618;2023-03-05T05:50:02;32.90;;;19.43;;
3217;SDS011;1621;49.702;8.618;2023-03-05T05:52:28;29.43;;;19.13;;
3217;SDS011;1621;49.702;8.618;2023-03-05T05:54:54;31.30;;;19.07;;
3217;SDS011;1621;49.702;8.618;2023-03-05T05:57:21;34.70;;;19.40;;
3217;SDS011;1621;49.702;8.618;2023-03-05T05:59:47;29.53;;;18.60;;
3217;SDS011;1621;49.702;8.618;2023-03-05T06:02:13;34.80;;;17.60;;
3217;SDS011;1621;49.702;8.618;2023-03-05T06:04:41;29.83;;;18.10;;
3217;SDS011;1621;49.702;8.618;2023-03-05T06:07:07;31.23;;;18.17;;
3217;SDS011;1621;49.702;8.618;2023-03-05T06:09:34;42.27;;;17.30;;
3217;SDS011;1621;49.702;8.618;2023-03-05T06:12:00;28.47;;;18.10;;
3217;SDS011;1621;49.702;8.618;2023-03-05T06:14:26;31.30;;;18.70;;
3217;SDS011;1621;49.702;8.618;2023-03-05T06:16:52;34.10;;;19.87;;
3217;SDS011;1621;49.702;8.618;2023-03-05T06:19:19;40.33;;;20.10;;
3217;SDS011;1621;49.702;8.618;2023-03-05T06:21:46;27.53;;;18.30;;
3217;SDS011;1621;49.702;8.618;2023-03-05T06:24:12;29.83;;;18.00;;
3217;SDS011;1621;49.702;8.618;2023-03-05T06:26:39;31.70;;;19.60;;
3217;SDS011;1621;49.702;8.618;2023-03-05T06:29:05;33.70;;;19.03;;
3217;SDS011;1621;49.702;8.618;2023-03-05T06:31:31;30.63;;;20.33;;
3217;SDS011;1621;49.702;8.618;2023-03-05T06:33:58;34.33;;;19.37;;
3217;SDS011;1621;49.702;8.618;2023-03-05T06:36:26;31.37;;;17.40;;
3217;SDS011;1621;49.702;8.618;2023-03-05T06:38:54;30.03;;;18.00;;
3217;SDS011;1621;49.702;8.618;2023-03-05T06:41:21;32.63;;;17.90;;
3217;SDS011;1621;49.702;8.618;2023-03-05T06:43:48;29.13;;;18.67;;
3217;SDS011;1621;49.702;8.618;2023-03-05T06:46:15;34.33;;;18.80;;
3217;SDS011;1621;49.702;8.618;2023-03-05T06:48:41;33.57;;;19.60;;
3217;SDS011;1621;49.702;8.618;2023-03-05T06:51:11;26.90;;;18.07;;
3217;SDS011;1621;49.702;8.618;2023-03-05T06:53:38;31.23;;;20.60;;
3217;SDS011;1621;49.702;8.618;2023-03-05T06:56:06;33.20;;;18.80;;
3217;SDS011;1621;49.702;8.618;2023-03-05T06:58:32;27.67;;;17.53;;
3217;SDS011;1621;49.702;8.618;2023-03-05T07:00:58;28.53;;;17.60;;
3217;SDS011;1621;49.702;8.618;2023-03-05T07:03:25;28.50;;;20.13;;
3217;SDS011;1621;49.702;8.618;2023-03-05T07:05:51;31.00;;;19.47;;
3217;SDS011;1621;49.702;8.618;2023-03-05T07:08:17;28.70;;;17.60;;
3217;SDS011;1621;49.702;8.618;2023-03-05T07:10:43;29.27;;;17.53;;
3217;SDS011;1621;49.702;8.618;2023-03-05T07:13:11;29.37;;;19.17;;
3217;SDS011;1621;49.702;8.618;2023-03-05T07:15:38;31.27;;;19.43;;
3217;SDS011;1621;49.702;8.618;2023-03-05T07:18:04;30.27;;;18.23;;
3217;SDS011;1621;49.702;8.618;2023-03-05T07:20:32;28.63;;;18.97;;
3217;SDS011;1621;49.702;8.618;2023-03-05T07:22:58;27.87;;;18.13;;
3217;SDS011;1621;49.702;8.618;2023-03-05T07:25:25;32.03;;;18.70;;
3217;SDS011;1621;49.702;8.618;2023-03-05T07:27:51;27.77;;;17.33;;
3217;SDS011;1621;49.702;8.618;2023-03-05T07:30:19;33.27;;;20.10;;
3217;SDS011;1621;49.702;8.618;2023-03-05T07:32:45;31.73;;;18.93;;
3217;SDS011;1621;49.702;8.618;2023-03-05T07:35:11;27.20;;;18.20;;
3217;SDS011;1621;49.702;8.618;2023-03-05T07:37:38;28.90;;;19.87;;
3217;SDS011;1621;49.702;8.618;2023-03-05T07:40:04;28.27;;;17.17;;
3217;SDS011;1621;49.702;8.618;2023-03-05T07:42:31;32.00;;;18.30;;
3217;SDS011;1621;49.702;8.618;2023-03-05T07:44:57;32.33;;;19.27;;
3217;SDS011;1621;49.702;8.618;2023-03-05T07:47:25;33.60;;;19.13;;
3217;SDS011;1621;49.702;8.618;2023-03-05T07:49:51;28.67;;;17.60;;
3217;SDS011;1621;49.702;8.618;2023-03-05T07:52:17;31.07;;;16.43;;
3217;SDS011;1621;49.702;8.618;2023-03-05T07:54:44;34.00;;;19.37;;
3217;SDS011;1621;49.702;8.618;2023-03-05T07:57:10;27.73;;;18.77;;
3217;SDS011;1621;49.702;8.618;2023-03-05T07:59:37;30.70;;;17.27;;
3217;SDS011;1621;49.702;8.618;2023-03-05T08:02:03;26.33;;;16.37;;
3217;SDS011;1621;49.702;8.618;2023-03-05T08:04:31;25.60;;;17.13;;
3217;SDS011;1621;49.702;8.618;2023-03-05T08:06:57;30.47;;;19.03;;
3217;SDS011;1621;49.702;8.618;2023-03-05T08:09:24;30.83;;;18.57;;
3217;SDS011;1621;49.702;8.618;2023-03-05T08:11:50;25.63;;;15.30;;
3217;SDS011;1621;49.702;8.618;2023-03-05T08:14:16;20.97;;;14.03;;
3217;SDS011;1621;49.702;8.618;2023-03-05T08:16:43;20.90;;;15.00;;
3217;SDS011;1621;49.702;8.618;2023-03-05T08:19:10;24.07;;;16.30;;
3217;SDS011;1621;49.702;8.618;2023-03-05T08:21:38;24.60;;;15.33;;
3217;SDS011;1621;49.702;8.618;2023-03-05T08:24:05;19.93;;;14.73;;
3217;SDS011;1621;49.702;8.618;2023-03-05T08:26:32;26.60;;;16.03;;
3217;SDS011;1621;49.702;8.618;2023-03-05T08:28:59;23.10;;;15.03;;
3217;SDS011;1621;49.702;8.618;2023-03-05T08:31:26;23.10;;;15.07;;
3217;SDS011;1621;49.702;8.618;2023-03-05T08:33:54;23.33;;;12.80;;
3217;SDS011;1621;49.702;8.618;2023-03-05T08:36:20;23.97;;;14.13;;
3217;SDS011;1621;49.702;8.618;2023-03-05T08:38:48;23.23;;;15.73;;
3217;SDS011;1621;49.702;8.618;2023-03-05T08:41:15;20.53;;;13.70;;
3217;SDS011;1621;49.702;8.618;2023-03-05T08:43:42;22.90;;;15.03;;
3217;SDS011;1621;49.702;8.618;2023-03-05T08:46:09;23.40;;;14.70;;
3217;SDS011;1621;49.702;8.618;2023-03-05T08:48:36;24.83;;;14.30;;
3217;SDS011;1621;49.702;8.618;2023-03-05T08:51:06;21.73;;;16.10;;
3217;SDS011;1621;49.702;8.618;2023-03-05T08:53:32;28.90;;;19.20;;
3217;SDS011;1621;49.702;8.618;2023-03-05T08:56:00;23.40;;;16.00;;
3217;SDS011;1621;49.702;8.618;2023-03-05T08:58:26;31.17;;;16.77;;
3217;SDS011;1621;49.702;8.618;2023-03-05T09:00:52;19.57;;;14.87;;
3217;SDS011;1621;49.702;8.618;2023-03-05T09:03:18;20.53;;;13.20;;
3217;SDS011;1621;49.702;8.618;2023-03-05T09:05:46;21.10;;;13.30;;
3217;SDS011;1621;49.702;8.618;2023-03-05T09:08:12;17.00;;;12.30;;
3217;SDS011;1621;49.702;8.618;2023-03-05T09:10:39;18.20;;;12.90;;
3217;SDS011;1621;49.702;8.618;2023-03-05T09:13:07;21.43;;;13.17;;
3217;SDS011;1621;49.702;8.618;2023-03-05T09:15:33;18.27;;;11.57;;
3217;SDS011;1621;49.702;8.618;2023-03-05T09:17:59;16.90;;;11.10;;
3217;SDS011;1621;49.702;8.618;2023-03-05T09:20:26;15.60;;;11.30;;
3217;SDS011;1621;49.702;8.618;2023-03-05T09:22:52;15.40;;;10.70;;
3217;SDS011;1621;49.702;8.618;2023-03-05T09:25:19;15.30;;;9.43;;
3217;SDS011;1621;49.702;8.618;2023-03-05T09:27:45;15.03;;;10.57;;
3217;SDS011;1621;49.702;8.618;2023-03-05T09:30:13;15.30;;;9.80;;
3217;SDS011;1621;49.702;8.618;2023-03-05T09:32:39;19.63;;;9.77;;
3217;SDS011;1621;49.702;8.618;2023-03-05T09:35:06;15.17;;;9.60;;
3217;SDS011;1621;49.702;8.618;2023-03-05T09:37:33;20.73;;;10.10;;
3217;SDS011;1621;49.702;8.618;2023-03-05T09:39:59;14.27;;;9.77;;
3217;SDS011;1621;49.702;8.618;2023-03-05T09:42:27;14.07;;;8.20;;
3217;SDS011;1621;49.702;8.618;2023-03-05T09:44:57;11.47;;;8.57;;
3217;SDS011;1621;49.702;8.618;2023-03-05T09:47:32;17.93;;;10.27;;
3217;SDS011;1621;49.702;8.618;2023-03-05T09:50:04;22.00;;;11.00;;
3217;SDS011;1621;49.702;8.618;2023-03-05T09:52:33;13.40;;;7.93;;
3217;SDS011;1621;49.702;8.618;2023-03-05T09:55:00;18.90;;;10.77;;
3217;SDS011;1621;49.702;8.618;2023-03-05T09:57:29;15.40;;;9.57;;
3217;SDS011;1621;49.702;8.618;2023-03-05T09:59:58;12.33;;;7.57;;
3217;SDS011;1621;49.702;8.618;2023-03-05T10:02:27;13.37;;;7.87;;
3217;SDS011;1621;49.702;8.618;2023-03-05T10:04:57;13.67;;;7.27;;
3217;SDS011;1621;49.702;8.618;2023-03-05T10:07:26;13.80;;;8.40;;
3217;SDS011;1621;49.702;8.618;2023-03-05T10:09:56;13.33;;;8.23;;
3217;SDS011;1621;49.702;8.618;2023-03-05T10:12:25;10.47;;;6.60;;
3217;SDS011;1621;49.702;8.618;2023-03-05T10:14:52;13.07;;;7.50;;
3217;SDS011;1621;49.702;8.618;2023-03-05T10:17:26;11.43;;;7.40;;
3217;SDS011;1621;49.702;8.618;2023-03-05T10:20:02;15.30;;;7.93;;
3217;SDS011;1621;49.702;8.618;2023-03-05T10:22:30;10.33;;;7.27;;
3217;SDS011;1621;49.702;8.618;2023-03-05T10:25:00;10.63;;;6.73;;
3217;SDS011;1621;49.702;8.618;2023-03-05T10:27:32;11.73;;;7.50;;
3217;SDS011;1621;49.702;8.618;2023-03-05T10:30:02;11.50;;;7.43;;
3217;SDS011;1621;49.702;8.618;2023-03-05T10:32:35;11.67;;;7.00;;
3217;SDS011;1621;49.702;8.618;2023-03-05T10:35:18;12.37;;;7.73;;
3217;SDS011;1621;49.702;8.618;2023-03-05T10:38:01;11.13;;;7.43;;
3217;SDS011;1621;49.702;8.618;2023-03-05T10:40:33;13.73;;;8.00;;
3217;SDS011;1621;49.702;8.618;2023-03-05T10:43:04;13.33;;;8.10;;
3217;SDS011;1621;49.702;8.618;2023-03-05T10:45:33;11.10;;;7.20;;
3217;SDS011;1621;49.702;8.618;2023-03-05T10:48:03;9.03;;;6.10;;
3217;SDS011;1621;49.702;8.618;2023-03-05T10:50:32;11.37;;;6.57;;
3217;SDS011;1621;49.702;8.618;2023-03-05T10:53:05;11.00;;;6.83;;
3217;SDS011;1621;49.702;8.618;2023-03-05T10:55:32;11.60;;;6.80;;
3217;SDS011;1621;49.702;8.618;2023-03-05T10:57:59;10.60;;;6.00;;
3217;SDS011;1621;49.702;8.618;2023-03-05T11:00:26;8.47;;;5.80;;
3217;SDS011;1621;49.702;8.618;2023-03-05T11:02:54;8.33;;;6.00;;
3217;SDS011;1621;49.702;8.618;2023-03-05T11:05:35;11.20;;;7.47;;
3217;SDS011;1621;49.702;8.618;2023-03-05T11:08:07;10.67;;;5.97;;
3217;SDS011;1621;49.702;8.618;2023-03-05T11:10:42;9.37;;;6.17;;
3217;SDS011;1621;49.702;8.618;2023-03-05T11:13:17;10.60;;;6.73;;
3217;SDS011;1621;49.702;8.618;2023-03-05T11:15:56;9.33;;;5.87;;
3217;SDS011;1621;49.702;8.618;2023-03-05T11:18:23;10.80;;;6.30;;
3217;SDS011;1621;49.702;8.618;2023-03-05T11:20:51;8.73;;;6.33;;
3217;SDS011;1621;49.702;8.618;2023-03-05T11:23:18;10.17;;;6.70;;
3217;SDS011;1621;49.702;8.618;2023-03-05T11:25:52;17.87;;;10.53;;
3217;SDS011;1621;49.702;8.618;2023-03-05T11:28:20;8.73;;;6.03;;
3217;SDS011;1621;49.702;8.618;2023-03-05T11:30:53;11.33;;;6.27;;
3217;SDS011;1621;49.702;8.618;2023-03-05T11:33:20;8.30;;;5.63;;
3217;SDS011;1621;49.702;8.618;2023-03-05T11:35:48;9.63;;;5.67;;
3217;SDS011;1621;49.702;8.618;2023-03-05T11:38:17;10.60;;;6.57;;
3217;SDS011;1621;49.702;8.618;2023-03-05T11:40:43;9.60;;;6.43;;
3217;SDS011;1621;49.702;8.618;2023-03-05T11:43:12;9.63;;;5.57;;
3217;SDS011;1621;49.702;8.618;2023-03-05T11:45:39;10.20;;;6.50;;
3217;SDS011;1621;49.702;8.618;2023-03-05T11:48:08;9.63;;;5.83;;
3217;SDS011;1621;49.702;8.618;2023-03-05T11:50:36;10.10;;;6.47;;
3217;SDS011;1621;49.702;8.618;2023-03-05T11:53:05;13.87;;;6.60;;
3217;SDS011;1621;49.702;8.618;2023-03-05T11:55:35;9.43;;;5.73;;
3217;SDS011;1621;49.702;8.618;2023-03-05T12:00:45;8.47;;;5.90;;
3217;SDS011;1621;49.702;8.618;2023-03-05T12:03:13;8.90;;;6.00;;
3217;SDS011;1621;49.702;8.618;2023-03-05T12:05:40;8.83;;;5.93;;
3217;SDS011;1621;49.702;8.618;2023-03-05T12:08:08;12.33;;;7.17;;
3217;SDS011;1621;49.702;8.618;2023-03-05T12:10:39;9.33;;;5.63;;
3217;SDS011;1621;49.702;8.618;2023-03-05T12:13:05;8.57;;;5.10;;
3217;SDS011;1621;49.702;8.618;2023-03-05T12:15:44;7.60;;;5.20;;
3217;SDS011;1621;49.702;8.618;2023-03-05T12:18:14;10.97;;;5.60;;
3217;SDS011;1621;49.702;8.618;2023-03-05T12:20:44;15.00;;;8.10;;
3217;SDS011;1621;49.702;8.618;2023-03-05T12:23:14;10.97;;;7.20;;
3217;SDS011;1621;49.702;8.618;2023-03-05T12:25:46;10.87;;;7.27;;
3217;SDS011;1621;49.702;8.618;2023-03-05T12:28:13;11.50;;;7.10;;
3217;SDS011;1621;49.702;8.618;2023-03-05T12:30:53;9.43;;;6.13;;
3217;SDS011;1621;49.702;8.618;2023-03-05T12:33:28;9.03;;;5.13;;
3217;SDS011;1621;49.702;8.618;2023-03-05T12:36:09;7.87;;;5.30;;
3217;SDS011;1621;49.702;8.618;2023-03-05T12:38:56;11.00;;;5.00;;
3217;SDS011;1621;49.702;8.618;2023-03-05T12:49:38;6.80;;;4.20;;
3217;SDS011;1621;49.702;8.618;2023-03-05T12:52:06;14.30;;;8.53;;
3217;SDS011;1621;49.702;8.618;2023-03-05T12:54:40;16.17;;;9.50;;
3217;SDS011;1621;49.702;8.618;2023-03-05T12:57:13;12.27;;;6.60;;
3217;SDS011;1621;49.702;8.618;2023-03-05T12:59:41;7.03;;;4.63;;
3217;SDS011;1621;49.702;8.618;2023-03-05T13:02:13;8.20;;;5.27;;
3217;SDS011;1621;49.702;8.618;2023-03-05T13:04:44;13.20;;;6.10;;
3217;SDS011;1621;49.702;8.618;2023-03-05T13:07:12;10.20;;;5.53;;
3217;SDS011;1621;49.702;8.618;2023-03-05T13:09:39;10.60;;;5.20;;
3217;SDS011;1621;49.702;8.618;2023-03-05T13:12:09;9.33;;;5.67;;
3217;SDS011;1621;49.702;8.618;2023-03-05T13:14:38;12.53;;;4.80;;
3217;SDS011;1621;49.702;8.618;2023-03-05T13:19:52;10.13;;;5.80;;
3217;SDS011;1621;49.702;8.618;2023-03-05T13:22:18;8.07;;;5.37;;
3217;SDS011;1621;49.702;8.618;2023-03-05T13:24:44;7.20;;;5.03;;
3217;SDS011;1621;49.702;8.618;2023-03-05T13:27:23;8.30;;;5.13;;
3217;SDS011;1621;49.702;8.618;2023-03-05T13:29:49;8.13;;;5.70;;
3217;SDS011;1621;49.702;8.618;2023-03-05T13:32:18;9.17;;;4.97;;
3217;SDS011;1621;49.702;8.618;2023-03-05T13:34:47;7.50;;;4.97;;
3217;SDS011;1621;49.702;8.618;2023-03-05T13:37:15;9.23;;;5.90;;
3217;SDS011;1621;49.702;8.618;2023-03-05T13:39:43;8.00;;;5.13;;
3217;SDS011;1621;49.702;8.618;2023-03-05T13:42:14;16.20;;;5.33;;
3217;SDS011;1621;49.702;8.618;2023-03-05T13:44:41;8.03;;;4.93;;
3217;SDS011;1621;49.702;8.618;2023-03-05T13:47:08;8.40;;;4.80;;
3217;SDS011;1621;49.702;8.618;2023-03-05T13:49:34;14.50;;;8.90;;
3217;SDS011;1621;49.702;8.618;2023-03-05T13:52:01;10.13;;;7.07;;
3217;SDS011;1621;49.702;8.618;2023-03-05T13:54:28;7.40;;;5.30;;
3217;SDS011;1621;49.702;8.618;2023-03-05T13:56:56;6.60;;;4.70;;
3217;SDS011;1621;49.702;8.618;2023-03-05T13:59:23;9.43;;;5.67;;
3217;SDS011;1621;49.702;8.618;2023-03-05T14:01:50;7.27;;;5.00;;
3217;SDS011;1621;49.702;8.618;2023-03-05T14:04:18;10.13;;;5.10;;
3217;SDS011;1621;49.702;8.618;2023-03-05T14:06:45;8.57;;;5.43;;
3217;SDS011;1621;49.702;8.618;2023-03-05T14:09:16;8.63;;;4.60;;
3217;SDS011;1621;49.702;8.618;2023-03-05T14:11:51;9.43;;;5.50;;
3217;SDS011;1621;49.702;8.618;2023-03-05T14:14:17;8.40;;;5.63;;
3217;SDS011;1621;49.702;8.618;2023-03-05T14:16:45;9.00;;;5.60;;
3217;SDS011;1621;49.702;8.618;2023-03-05T14:19:25;10.10;;;5.40;;
3217;SDS011;1621;49.702;8.618;2023-03-05T14:21:53;8.20;;;5.80;;
3217;SDS011;1621;49.702;8.618;2023-03-05T14:24:19;12.87;;;5.90;;
3217;SDS011;1621;49.702;8.618;2023-03-05T14:26:47;9.47;;;5.30;;
3217;SDS011;1621;49.702;8.618;2023-03-05T14:29:16;11.20;;;5.73;;
3217;SDS011;1621;49.702;8.618;2023-03-05T14:31:45;7.70;;;4.63;;
3217;SDS011;1621;49.702;8.618;2023-03-05T14:36:42;10.20;;;5.77;;
3217;SDS011;1621;49.702;8.618;2023-03-05T14:39:20;10.43;;;6.57;;
3217;SDS011;1621;49.702;8.618;2023-03-05T14:41:50;11.73;;;7.07;;
3217;SDS011;1621;49.702;8.618;2023-03-05T14:44:18;12.10;;;7.70;;
3217;SDS011;1621;49.702;8.618;2023-03-05T14:46:47;10.20;;;6.33;;
3217;SDS011;1621;49.702;8.618;2023-03-05T14:49:13;12.80;;;6.77;;
3217;SDS011;1621;49.702;8.618;2023-03-05T14:51:40;10.37;;;7.10;;
3217;SDS011;1621;49.702;8.618;2023-03-05T14:54:15;13.03;;;7.73;;
3217;SDS011;1621;49.702;8.618;2023-03-05T14:56:42;9.70;;;6.70;;
3217;SDS011;1621;49.702;8.618;2023-03-05T14:59:08;9.37;;;5.93;;
3217;SDS011;1621;49.702;8.618;2023-03-05T15:01:36;8.77;;;5.67;;
3217;SDS011;1621;49.702;8.618;2023-03-05T15:04:02;8.57;;;5.97;;
3217;SDS011;1621;49.702;8.618;2023-03-05T15:06:29;11.73;;;7.00;;
3217;SDS011;1621;49.702;8.618;2023-03-05T15:08:57;14.33;;;7.90;;
3217;SDS011;1621;49.702;8.618;2023-03-05T15:11:23;8.50;;;5.97;;
3217;SDS011;1621;49.702;8.618;2023-03-05T15:13:49;8.10;;;5.80;;
3217;SDS011;1621;49.702;8.618;2023-03-05T15:16:16;9.43;;;5.97;;